Time;durP1;ratioP1;P1;durP2;ratioP2;P2;SDS_P1;SDS_P2;PMS_P1;PMS_P2;Temp;Humidity;BMP_temperature;BMP_pressure;BME280_temperature;BME280_humidity;BME280_pressure;Samples;Min_cycle;Max_cycle;Signal;HPM_P1;HPM_P2
2021/03/20 00:01:26;;;;;;;10.52;6.93;;;1.10;99.90;;;;;;5092399;28;20187;-52
2021/03/20 00:03:53;;;;;;;8.23;6.35;;;1.30;99.90;;;;;;5099202;27;20255;-52
2021/03/20 00:06:22;;;;;;;7.70;6.35;;;1.20;99.90;;;;;;5109124;27;20639;-52
2021/03/20 00:08:50;;;;;;;10.25;7.57;;;1.10;99.90;;;;;;5099195;27;20209;-53
2021/03/20 00:11:16;;;;;;;8.00;6.70;;;1.20;99.90;;;;;;5101435;27;20182;-53
2021/03/20 00:13:43;;;;;;;13.38;7.03;;;1.10;99.90;;;;;;5098113;28;20191;-52
2021/03/20 00:16:10;;;;;;;8.88;7.53;;;1.10;99.90;;;;;;5097573;27;20207;-53
2021/03/20 00:18:35;;;;;;;9.35;6.72;;;1.30;99.90;;;;;;5102663;27;20194;-52
2021/03/20 00:21:02;;;;;;;9.20;7.77;;;1.10;99.90;;;;;;5109740;28;20189;-53
2021/03/20 00:23:28;;;;;;;8.20;6.75;;;1.10;99.90;;;;;;5127256;27;20183;-52
2021/03/20 00:25:54;;;;;;;10.50;7.53;;;1.30;99.90;;;;;;5096776;28;20206;-52
2021/03/20 00:28:23;;;;;;;9.50;7.80;;;1.10;99.90;;;;;;5106432;27;20563;-52
2021/03/20 00:31:05;;;;;;;10.07;7.60;;;1.10;99.90;;;;;;5097546;27;20440;-52
2021/03/20 00:33:31;;;;;;;8.25;6.68;;;1.10;99.90;;;;;;5100669;28;20172;-53
2021/03/20 00:35:57;;;;;;;9.30;7.50;;;1.00;99.90;;;;;;5100648;28;20686;-52
2021/03/20 00:38:25;;;;;;;9.05;7.47;;;0.80;99.90;;;;;;5092279;28;20196;-52
2021/03/20 00:40:52;;;;;;;8.68;6.55;;;1.10;99.90;;;;;;5100832;27;20186;-52
2021/03/20 00:43:18;;;;;;;9.02;7.35;;;1.10;99.90;;;;;;5110765;27;20176;-52
2021/03/20 00:45:44;;;;;;;9.43;7.13;;;0.90;99.90;;;;;;5094077;28;20187;-52
2021/03/20 00:48:13;;;;;;;7.67;6.40;;;0.80;99.90;;;;;;5094795;27;20541;-52
2021/03/20 00:50:39;;;;;;;8.43;7.20;;;0.90;99.90;;;;;;5101631;28;20251;-52
2021/03/20 00:53:05;;;;;;;9.90;6.78;;;0.80;99.90;;;;;;5118743;27;20184;-52
2021/03/20 00:55:31;;;;;;;8.70;6.70;;;1.10;99.90;;;;;;5100152;28;20172;-53
2021/03/20 00:57:57;;;;;;;7.40;6.37;;;1.10;99.90;;;;;;5095299;27;20472;-53
2021/03/20 01:00:25;;;;;;;7.63;6.50;;;1.10;99.90;;;;;;5098710;28;20175;-52
2021/03/20 01:02:51;;;;;;;10.38;7.88;;;1.10;99.90;;;;;;5091308;28;20430;-52
2021/03/20 01:05:17;;;;;;;9.67;7.70;;;1.10;99.90;;;;;;5098510;27;20187;-52
2021/03/20 01:07:44;;;;;;;8.90;7.05;;;1.30;99.90;;;;;;5118358;27;20207;-53
2021/03/20 01:10:21;;;;;;;9.57;7.57;;;1.20;99.90;;;;;;5091780;28;20530;-52
2021/03/20 01:12:47;;;;;;;10.18;6.88;;;1.30;99.90;;;;;;5101848;27;20655;-52
2021/03/20 01:15:15;;;;;;;8.55;6.50;;;1.30;99.90;;;;;;5116798;27;20660;-52
2021/03/20 01:17:40;;;;;;;9.73;6.45;;;1.20;99.90;;;;;;5104351;28;20628;-52
2021/03/20 01:20:07;;;;;;;8.57;7.00;;;1.30;99.90;;;;;;5111435;28;20449;-52
2021/03/20 01:22:36;;;;;;;8.63;6.47;;;1.50;99.90;;;;;;5096595;27;20250;-53
2021/03/20 01:25:04;;;;;;;8.40;7.00;;;1.30;99.90;;;;;;5128773;27;20267;-53
2021/03/20 01:27:30;;;;;;;8.85;6.97;;;1.50;99.90;;;;;;5091306;28;20211;-52
2021/03/20 01:29:56;;;;;;;8.80;6.55;;;1.10;99.90;;;;;;5092502;28;20183;-52
2021/03/20 01:32:22;;;;;;;7.07;6.13;;;1.20;99.90;;;;;;5091481;28;20190;-53
2021/03/20 01:34:47;;;;;;;11.63;7.90;;;1.40;99.90;;;;;;5092311;28;20605;-53
2021/03/20 01:37:13;;;;;;;9.47;7.30;;;1.40;99.90;;;;;;5110811;28;20595;-53
2021/03/20 01:39:39;;;;;;;9.73;7.23;;;1.40;99.90;;;;;;5102912;28;20179;-53
2021/03/20 01:42:06;;;;;;;9.93;7.43;;;1.40;99.90;;;;;;5103659;28;20239;-52
2021/03/20 01:44:32;;;;;;;8.98;7.20;;;1.40;99.90;;;;;;5093141;28;20183;-53
2021/03/20 01:46:58;;;;;;;8.93;7.75;;;1.50;99.90;;;;;;5091728;28;20184;-53
2021/03/20 01:49:45;;;;;;;8.37;6.90;;;1.70;99.90;;;;;;5091276;28;20233;-53
2021/03/20 01:52:29;;;;;;;8.90;6.63;;;1.50;99.90;;;;;;5117780;28;20180;-53
2021/03/20 01:55:14;;;;;;;10.55;7.97;;;1.70;99.90;;;;;;5108346;28;20180;-52
2021/03/20 01:57:46;;;;;;;9.15;7.55;;;1.80;99.90;;;;;;5101531;28;20222;-53
2021/03/20 02:00:18;;;;;;;10.02;6.90;;;1.60;99.90;;;;;;5098996;28;20215;-52
2021/03/20 02:02:44;;;;;;;10.27;6.82;;;1.70;99.90;;;;;;5111850;28;21530;-53
2021/03/20 02:05:19;;;;;;;8.67;7.30;;;1.60;99.90;;;;;;5092207;28;20207;-53
2021/03/20 02:07:45;;;;;;;8.93;6.35;;;1.70;99.90;;;;;;5090899;28;20286;-52
2021/03/20 02:10:12;;;;;;;8.00;6.30;;;2.00;99.90;;;;;;5104302;28;20272;-52
2021/03/20 02:12:38;;;;;;;7.57;6.20;;;2.20;99.90;;;;;;5103686;28;20436;-53
2021/03/20 02:15:11;;;;;;;7.05;5.90;;;2.00;99.90;;;;;;5112545;27;20555;-52
2021/03/20 02:17:52;;;;;;;6.45;5.80;;;2.00;99.90;;;;;;5101677;27;20207;-53
2021/03/20 02:20:48;;;;;;;8.93;6.25;;;2.00;99.90;;;;;;5110846;27;20266;-53
2021/03/20 02:23:33;;;;;;;10.02;7.15;;;2.20;99.90;;;;;;5103621;28;20645;-53
2021/03/20 02:26:30;;;;;;;8.73;6.75;;;2.10;99.90;;;;;;5103653;27;20271;-53
2021/03/20 02:29:17;;;;;;;6.93;6.05;;;2.10;99.90;;;;;;5099708;28;20290;-53
2021/03/20 02:32:14;;;;;;;6.93;6.10;;;2.10;99.90;;;;;;5098188;27;20598;-53
2021/03/20 02:34:51;;;;;;;7.88;6.10;;;2.50;99.90;;;;;;5127121;27;20245;-53
2021/03/20 02:37:31;;;;;;;6.30;5.40;;;2.30;99.90;;;;;;5096539;27;20596;-53
2021/03/20 02:40:23;;;;;;;7.75;6.60;;;2.50;99.90;;;;;;5103698;27;20187;-53
2021/03/20 02:43:01;;;;;;;6.60;5.82;;;2.40;99.90;;;;;;5111882;27;20183;-53
2021/03/20 02:45:46;;;;;;;7.25;6.47;;;2.60;99.90;;;;;;5096860;27;20172;-53
2021/03/20 02:48:24;;;;;;;6.47;5.80;;;2.80;99.90;;;;;;5106552;27;20259;-52
2021/03/20 02:51:04;;;;;;;9.02;6.68;;;2.30;99.90;;;;;;5114684;27;20542;-52
2021/03/20 02:53:39;;;;;;;7.53;6.72;;;2.40;99.90;;;;;;5107501;27;20271;-53
2021/03/20 02:56:09;;;;;;;8.63;5.97;;;2.50;99.90;;;;;;5109831;28;20255;-53
2021/03/20 02:58:47;;;;;;;11.25;6.45;;;2.80;99.90;;;;;;5111866;27;20277;-52
2021/03/20 03:01:18;;;;;;;6.97;5.93;;;2.60;99.90;;;;;;5115753;27;20253;-53
2021/03/20 03:03:46;;;;;;;7.20;6.10;;;2.80;99.90;;;;;;5108881;27;20175;-53
2021/03/20 03:06:34;;;;;;;7.45;5.80;;;2.90;99.90;;;;;;5112466;27;20190;-53
2021/03/20 03:09:06;;;;;;;8.00;6.20;;;2.80;99.90;;;;;;5094847;28;20218;-53
2021/03/20 03:11:38;;;;;;;6.80;6.07;;;2.50;99.90;;;;;;5114623;27;20595;-53
2021/03/20 03:14:14;;;;;;;7.15;6.22;;;2.50;99.90;;;;;;5104376;27;20282;-53
2021/03/20 03:16:51;;;;;;;10.75;6.32;;;2.50;99.90;;;;;;5096943;27;20251;-53
2021/03/20 03:19:23;;;;;;;8.05;6.65;;;2.50;99.90;;;;;;5103930;27;20214;-53
2021/03/20 03:21:52;;;;;;;6.55;5.72;;;2.60;99.90;;;;;;5099385;28;20180;-53
2021/03/20 03:24:20;;;;;;;8.80;6.93;;;2.50;99.90;;;;;;5128307;27;20175;-52
2021/03/20 03:26:51;;;;;;;7.03;5.90;;;2.50;99.90;;;;;;5103838;27;20296;-53
2021/03/20 03:29:23;;;;;;;6.25;5.65;;;2.50;99.90;;;;;;5108344;27;20250;-52
2021/03/20 03:32:03;;;;;;;6.60;6.00;;;2.70;99.90;;;;;;5104323;27;20700;-52
2021/03/20 03:34:40;;;;;;;8.27;7.30;;;2.90;99.90;;;;;;5093735;28;20194;-53
2021/03/20 03:37:15;;;;;;;7.60;5.72;;;2.90;99.90;;;;;;5099937;27;20671;-53
2021/03/20 03:39:51;;;;;;;8.50;6.85;;;2.90;99.90;;;;;;5115329;27;20191;-53
2021/03/20 03:42:19;;;;;;;7.72;6.03;;;2.80;99.90;;;;;;5093724;28;20544;-52
2021/03/20 03:44:47;;;;;;;7.80;6.50;;;3.10;99.90;;;;;;5093103;28;20215;-53
2021/03/20 03:47:15;;;;;;;8.45;6.10;;;2.80;99.90;;;;;;5093548;28;20569;-52
2021/03/20 03:49:41;;;;;;;8.57;6.35;;;3.00;99.90;;;;;;5107110;27;20641;-52
2021/03/20 03:52:08;;;;;;;7.53;6.73;;;2.80;99.90;;;;;;5113343;27;20194;-52
2021/03/20 03:54:34;;;;;;;9.38;6.80;;;2.50;99.90;;;;;;5108481;27;20442;-53
2021/03/20 03:57:06;;;;;;;7.70;6.60;;;2.60;99.90;;;;;;5098516;28;20653;-53
2021/03/20 03:59:40;;;;;;;8.45;6.40;;;2.70;99.90;;;;;;5098963;27;21020;-53
2021/03/20 04:02:14;;;;;;;7.35;6.65;;;2.70;99.90;;;;;;5092855;28;20735;-53
2021/03/20 04:04:47;;;;;;;7.40;6.40;;;2.80;99.90;;;;;;5102586;27;20186;-53
2021/03/20 04:07:57;;;;;;;6.95;5.85;;;2.80;99.90;;;;;;5099543;28;20195;-57
2021/03/20 04:10:49;;;;;;;7.20;6.07;;;2.70;99.90;;;;;;5074838;28;20219;-53
2021/03/20 04:13:34;;;;;;;7.47;6.32;;;2.70;99.90;;;;;;5106553;27;20210;-53
2021/03/20 04:16:19;;;;;;;5.97;5.38;;;2.60;99.90;;;;;;5099696;27;20206;-52
2021/03/20 04:18:59;;;;;;;6.60;5.80;;;2.70;99.90;;;;;;5106739;27;20615;-53
2021/03/20 04:21:40;;;;;;;7.13;6.25;;;2.80;99.90;;;;;;5099829;27;20427;-52
2021/03/20 04:24:18;;;;;;;6.72;6.03;;;2.70;99.90;;;;;;5127252;27;20179;-53
2021/03/20 04:26:49;;;;;;;6.53;5.80;;;2.60;99.90;;;;;;5096236;28;20190;-52
2021/03/20 04:29:24;;;;;;;6.78;5.53;;;2.60;99.90;;;;;;5111440;27;20221;-53
2021/03/20 04:31:56;;;;;;;6.25;5.50;;;2.60;99.90;;;;;;5107675;27;20650;-53
2021/03/20 04:34:38;;;;;;;6.97;6.15;;;2.70;99.90;;;;;;5106073;27;20178;-52
2021/03/20 04:37:10;;;;;;;6.13;5.30;;;2.80;99.90;;;;;;5096661;28;20203;-52
2021/03/20 04:39:42;;;;;;;7.25;6.03;;;2.90;99.90;;;;;;5091786;28;20188;-53
2021/03/20 04:42:09;;;;;;;7.20;6.22;;;2.80;99.90;;;;;;5092794;28;20183;-52
2021/03/20 04:44:36;;;;;;;8.10;6.65;;;2.60;99.90;;;;;;5096129;28;20281;-53
2021/03/20 04:47:07;;;;;;;6.63;5.93;;;2.60;99.90;;;;;;5106789;28;20179;-52
2021/03/20 04:49:38;;;;;;;7.05;6.03;;;2.70;99.90;;;;;;5097032;28;20216;-53
2021/03/20 04:52:18;;;;;;;6.90;6.20;;;3.00;99.90;;;;;;5101525;27;20460;-53
2021/03/20 04:54:45;;;;;;;8.52;6.95;;;2.70;99.90;;;;;;5102871;27;20180;-53
2021/03/20 04:57:27;;;;;;;7.55;6.35;;;3.00;99.90;;;;;;5100118;28;20192;-53
2021/03/20 05:00:15;;;;;;;6.82;6.13;;;2.70;99.90;;;;;;5095387;27;20716;-53
2021/03/20 05:03:01;;;;;;;7.15;5.93;;;2.60;99.90;;;;;;5123379;27;20229;-52
2021/03/20 05:05:39;;;;;;;8.18;6.53;;;2.50;99.90;;;;;;5094226;28;20179;-52
2021/03/20 05:08:09;;;;;;;7.43;6.50;;;2.60;99.90;;;;;;5091673;28;20773;-52
2021/03/20 05:10:41;;;;;;;9.23;6.90;;;2.50;99.90;;;;;;5102206;27;20278;-52
2021/03/20 05:13:32;;;;;;;7.45;6.38;;;2.60;99.90;;;;;;5103505;28;20237;-53
2021/03/20 05:16:05;;;;;;;7.63;6.82;;;2.40;99.90;;;;;;5096214;27;20191;-53
2021/03/20 05:18:30;;;;;;;8.88;6.65;;;2.40;99.90;;;;;;5095058;27;20194;-52
2021/03/20 05:20:57;;;;;;;8.37;7.10;;;2.40;99.90;;;;;;5091224;28;20225;-52
2021/03/20 05:23:22;;;;;;;7.00;6.30;;;2.50;99.90;;;;;;5103349;27;20187;-53
2021/03/20 05:25:48;;;;;;;8.80;7.00;;;1.80;99.90;;;;;;5109646;27;20206;-53
2021/03/20 05:28:13;;;;;;;8.30;6.67;;;2.30;99.90;;;;;;5095262;28;20605;-52
2021/03/20 05:30:39;;;;;;;7.80;6.83;;;2.20;99.90;;;;;;5095077;28;20198;-53
2021/03/20 05:33:05;;;;;;;8.10;6.33;;;2.40;99.90;;;;;;5094553;28;20321;-52
2021/03/20 05:35:31;;;;;;;8.57;7.23;;;2.50;99.90;;;;;;5105676;28;20442;-52
2021/03/20 05:37:56;;;;;;;8.20;6.10;;;2.40;99.90;;;;;;5091469;28;20295;-53
2021/03/20 05:40:29;;;;;;;7.00;5.90;;;2.40;99.90;;;;;;5118390;28;20255;-53
2021/03/20 05:43:07;;;;;;;6.45;5.53;;;2.50;99.90;;;;;;5097864;28;20201;-52
2021/03/20 05:45:37;;;;;;;8.10;6.25;;;2.60;99.90;;;;;;5094407;28;20182;-53
2021/03/20 05:48:35;;;;;;;7.18;6.15;;;2.70;99.90;;;;;;5098708;28;20202;-52
2021/03/20 05:51:23;;;;;;;7.15;6.30;;;2.40;99.90;;;;;;5105631;27;20183;-53
2021/03/20 05:53:57;;;;;;;6.32;5.72;;;2.40;99.90;;;;;;5133550;27;20190;-52
2021/03/20 05:56:31;;;;;;;7.82;6.32;;;2.30;99.90;;;;;;5107320;27;20195;-53
2021/03/20 05:59:03;;;;;;;7.63;6.45;;;2.30;99.90;;;;;;5116575;27;20225;-53
2021/03/20 06:01:31;;;;;;;7.85;6.65;;;2.40;99.90;;;;;;5128749;27;20176;-55
2021/03/20 06:04:27;;;;;;;7.20;6.00;;;2.20;99.90;;;;;;5101849;27;20278;-53
2021/03/20 06:07:15;;;;;;;7.32;5.95;;;2.30;99.90;;;;;;5120429;27;20191;-53
2021/03/20 06:09:59;;;;;;;6.40;5.80;;;2.40;99.90;;;;;;5099841;27;20661;-53
2021/03/20 06:12:39;;;;;;;7.15;5.43;;;2.30;99.90;;;;;;5109438;27;20186;-52
2021/03/20 06:15:14;;;;;;;6.70;6.10;;;2.50;99.90;;;;;;5105396;27;20199;-52
2021/03/20 06:17:49;;;;;;;6.95;6.15;;;2.50;99.90;;;;;;5107834;27;20214;-53
2021/03/20 06:20:23;;;;;;;6.15;5.55;;;2.50;99.90;;;;;;5099727;27;20167;-52
2021/03/20 06:23:04;;;;;;;5.85;5.22;;;2.50;99.90;;;;;;5105619;27;20215;-52
2021/03/20 06:25:39;;;;;;;6.47;5.63;;;2.50;99.90;;;;;;5106081;27;20809;-50
2021/03/20 06:28:05;;;;;;;8.35;5.85;;;2.40;99.90;;;;;;5104914;27;20210;-53
2021/03/20 06:30:47;;;;;;;4.70;4.00;;;2.40;99.90;;;;;;5107065;27;20179;-52
2021/03/20 06:33:21;;;;;;;5.15;4.60;;;2.60;99.90;;;;;;5106817;27;20178;-52
2021/03/20 06:35:55;;;;;;;5.65;4.72;;;2.60;99.90;;;;;;5107256;27;20183;-53
2021/03/20 06:38:40;;;;;;;5.10;4.60;;;2.90;99.90;;;;;;5107860;27;20682;-53
2021/03/20 06:41:22;;;;;;;5.13;4.53;;;2.70;99.60;;;;;;5123245;27;20175;-51
2021/03/20 06:43:53;;;;;;;5.43;3.65;;;2.80;99.30;;;;;;5102582;27;20633;-53
2021/03/20 06:46:26;;;;;;;6.28;4.97;;;2.80;98.80;;;;;;5125235;27;20191;-52
2021/03/20 06:48:54;;;;;;;5.35;4.20;;;3.00;98.80;;;;;;5106441;28;20637;-52
2021/03/20 06:51:20;;;;;;;5.75;4.53;;;3.20;98.20;;;;;;5107141;27;20191;-52
2021/03/20 06:53:56;;;;;;;4.93;4.43;;;3.10;98.20;;;;;;5106419;27;20643;-52
2021/03/20 06:56:24;;;;;;;5.75;4.55;;;3.40;97.80;;;;;;5105151;27;20248;-50
2021/03/20 06:58:49;;;;;;;4.75;4.25;;;3.10;97.80;;;;;;5100678;27;20645;-49
2021/03/20 07:01:37;;;;;;;4.77;3.50;;;3.00;97.80;;;;;;5106859;27;20175;-54
2021/03/20 07:04:15;;;;;;;4.47;3.75;;;3.10;97.60;;;;;;5102478;28;20562;-51
2021/03/20 07:06:58;;;;;;;4.65;3.47;;;3.50;96.90;;;;;;5102097;27;20195;-49
2021/03/20 07:09:24;;;;;;;5.00;3.67;;;3.10;95.90;;;;;;5107721;27;20226;-49
2021/03/20 07:12:12;;;;;;;6.90;4.40;;;3.10;96.20;;;;;;5101352;27;20272;-52
2021/03/20 07:14:45;;;;;;;4.50;3.95;;;3.20;96.50;;;;;;5107190;27;20269;-51
2021/03/20 07:17:23;;;;;;;4.22;3.83;;;3.70;96.20;;;;;;5098379;27;20358;-52
2021/03/20 07:20:23;;;;;;;4.47;3.65;;;3.60;94.60;;;;;;5094044;28;20179;-51
2021/03/20 07:23:07;;;;;;;4.05;3.58;;;3.50;94.30;;;;;;5094161;27;20206;-52
2021/03/20 07:25:45;;;;;;;5.90;3.88;;;3.50;95.40;;;;;;5121812;27;20229;-52
2021/03/20 07:28:25;;;;;;;4.30;3.90;;;3.30;95.00;;;;;;5102719;27;20252;-52
2021/03/20 07:31:08;;;;;;;4.20;3.25;;;3.70;94.60;;;;;;5106524;27;20187;-52
2021/03/20 07:33:37;;;;;;;5.65;3.55;;;3.80;93.40;;;;;;5106481;27;20187;-51
2021/03/20 07:36:25;;;;;;;4.00;3.60;;;3.70;93.60;;;;;;5124777;27;20188;-51
2021/03/20 07:39:18;;;;;;;4.55;3.90;;;4.00;93.10;;;;;;5107033;27;20194;-52
2021/03/20 07:41:50;;;;;;;4.13;3.65;;;4.00;93.00;;;;;;5092655;28;20172;-52
2021/03/20 07:44:16;;;;;;;3.55;3.00;;;3.80;92.10;;;;;;5098897;28;20567;-52
2021/03/20 07:46:43;;;;;;;7.30;4.05;;;4.20;92.60;;;;;;5119059;27;20626;-52
2021/03/20 07:49:21;;;;;;;4.10;3.70;;;4.50;92.60;;;;;;5096681;27;20218;-52
2021/03/20 07:51:50;;;;;;;4.28;3.78;;;4.80;91.80;;;;;;5107315;28;20201;-52
2021/03/20 07:54:21;;;;;;;4.40;3.20;;;5.30;90.20;;;;;;5107780;27;20659;-51
2021/03/20 07:56:47;;;;;;;4.80;3.58;;;5.60;87.80;;;;;;5107286;27;20578;-52
2021/03/20 07:59:34;;;;;;;4.00;3.70;;;5.30;86.90;;;;;;5116922;27;20196;-51
2021/03/20 08:02:02;;;;;;;4.55;4.03;;;6.50;85.30;;;;;;5101917;27;20669;-52
2021/03/20 08:05:04;;;;;;;3.72;3.40;;;6.80;82.20;;;;;;5105604;27;20179;-52
2021/03/20 08:07:36;;;;;;;3.40;3.10;;;7.60;80.40;;;;;;5096835;28;20207;-52
2021/03/20 08:10:19;;;;;;;3.50;3.20;;;7.80;75.00;;;;;;5103847;27;20230;-51
2021/03/20 08:12:50;;;;;;;5.53;4.50;;;8.10;72.40;;;;;;5101454;28;20262;-53
2021/03/20 08:15:24;;;;;;;5.97;4.43;;;7.90;71.30;;;;;;5098816;27;20290;-52
2021/03/20 08:17:49;;;;;;;5.63;3.90;;;7.30;72.30;;;;;;5097261;27;20215;-50
2021/03/20 08:20:16;;;;;;;5.60;4.07;;;6.70;74.00;;;;;;5096474;27;20179;-53
2021/03/20 08:22:46;;;;;;;3.70;3.40;;;6.90;76.20;;;;;;5106466;27;20232;-52
2021/03/20 08:25:12;;;;;;;6.70;3.22;;;5.70;73.80;;;;;;5100495;27;20226;-52
2021/03/20 08:27:50;;;;;;;2.93;2.73;;;5.80;74.90;;;;;;5105263;27;20204;-52
2021/03/20 08:30:41;;;;;;;3.13;2.60;;;5.90;73.30;;;;;;5096039;27;20195;-52
2021/03/20 08:33:36;;;;;;;3.10;2.78;;;5.50;70.80;;;;;;5116729;27;20269;-52
2021/03/20 08:36:33;;;;;;;2.53;2.33;;;5.30;72.50;;;;;;5124507;27;20192;-52
2021/03/20 08:38:58;;;;;;;3.17;2.88;;;4.20;73.90;;;;;;5092747;27;20195;-52
2021/03/20 08:41:28;;;;;;;3.27;2.93;;;4.90;76.50;;;;;;5099176;27;20184;-52
2021/03/20 08:43:56;;;;;;;4.65;3.05;;;5.20;76.90;;;;;;5098589;27;20197;-51
2021/03/20 08:46:44;;;;;;;4.85;3.13;;;5.20;75.40;;;;;;5103074;27;20223;-50
2021/03/20 08:49:25;;;;;;;3.03;2.80;;;4.90;76.40;;;;;;5103376;28;20207;-51
2021/03/20 08:52:13;;;;;;;3.67;2.85;;;5.50;76.00;;;;;;5104704;27;20216;-52
2021/03/20 08:54:44;;;;;;;3.90;2.60;;;6.00;74.40;;;;;;5094291;28;20558;-51
2021/03/20 08:57:34;;;;;;;3.50;2.97;;;5.80;70.40;;;;;;5100148;27;20682;-50
2021/03/20 09:00:10;;;;;;;3.45;2.97;;;5.90;72.10;;;;;;5119979;27;20714;-51
2021/03/20 09:02:39;;;;;;;3.30;2.50;;;6.70;71.50;;;;;;5092168;27;20227;-51
2021/03/20 09:05:17;;;;;;;4.57;2.60;;;6.50;67.80;;;;;;5094946;27;20178;-50
2021/03/20 09:07:54;;;;;;;3.50;2.67;;;6.00;69.60;;;;;;5101041;27;20210;-52
2021/03/20 09:10:44;;;;;;;4.38;2.80;;;6.80;68.30;;;;;;5105824;27;20643;-51
2021/03/20 09:13:21;;;;;;;3.20;2.90;;;6.70;68.30;;;;;;5104369;27;20187;-52
2021/03/20 09:15:54;;;;;;;3.10;2.80;;;7.10;67.30;;;;;;5096990;27;20198;-51
2021/03/20 09:18:20;;;;;;;4.18;3.53;;;7.20;66.60;;;;;;5100587;28;20218;-50
2021/03/20 09:20:54;;;;;;;2.90;2.60;;;7.90;63.20;;;;;;5098481;28;20708;-51
2021/03/20 09:23:31;;;;;;;2.63;2.42;;;7.60;61.10;;;;;;5098906;27;20439;-51
2021/03/20 09:26:00;;;;;;;3.40;3.10;;;8.40;61.70;;;;;;5101471;27;20182;-51
2021/03/20 09:28:46;;;;;;;3.83;3.53;;;7.30;62.60;;;;;;5106212;28;20580;-51
2021/03/20 09:31:31;;;;;;;3.95;3.00;;;7.70;65.10;;;;;;5098529;28;20183;-51
2021/03/20 09:33:58;;;;;;;3.25;2.95;;;7.30;65.00;;;;;;5097981;28;20171;-51
2021/03/20 09:36:33;;;;;;;3.55;2.65;;;7.60;63.80;;;;;;5119352;28;20725;-51
2021/03/20 09:39:02;;;;;;;2.65;2.45;;;7.20;61.30;;;;;;5100267;28;20396;-52
2021/03/20 09:41:27;;;;;;;4.07;2.30;;;7.50;59.00;;;;;;5091753;28;20191;-51
2021/03/20 09:43:59;;;;;;;5.20;2.90;;;7.80;57.10;;;;;;5098872;28;20199;-51
2021/03/20 09:46:40;;;;;;;3.38;2.65;;;8.30;56.60;;;;;;5096009;28;20547;-52
2021/03/20 09:49:11;;;;;;;2.38;1.90;;;8.50;54.90;;;;;;5099353;28;20207;-51
2021/03/20 09:52:03;;;;;;;2.42;2.15;;;9.30;51.20;;;;;;5104877;28;20188;-51
2021/03/20 09:54:31;;;;;;;2.97;2.20;;;10.20;47.00;;;;;;5099478;28;20306;-51
2021/03/20 09:57:27;;;;;;;2.75;2.15;;;10.00;44.60;;;;;;5090936;28;20195;-51
2021/03/20 09:59:51;;;;;;;2.75;1.98;;;9.70;45.90;;;;;;5119594;28;20651;-50
2021/03/20 10:02:20;;;;;;;2.90;2.63;;;10.50;43.50;;;;;;5117900;27;20234;-51
2021/03/20 10:04:59;;;;;;;4.50;2.97;;;9.60;46.30;;;;;;5093250;28;20223;-51
2021/03/20 10:07:25;;;;;;;3.15;2.65;;;9.60;46.80;;;;;;5093098;28;20193;-52
2021/03/20 10:10:03;;;;;;;2.55;2.35;;;10.00;44.30;;;;;;5108763;28;20216;-51
2021/03/20 10:12:30;;;;;;;5.75;3.42;;;10.50;43.50;;;;;;5102091;28;20232;-51
2021/03/20 10:18:00;;;;;;;2.70;2.50;;;11.10;41.70;;;;;;5117567;28;20221;-51
2021/03/20 10:20:40;;;;;;;3.40;2.97;;;11.60;41.30;;;;;;5092052;28;20286;-51
2021/03/20 10:23:43;;;;;;;2.60;2.40;;;12.30;40.30;;;;;;5108111;28;20320;-51
2021/03/20 10:26:38;;;;;;;2.65;2.25;;;11.80;39.30;;;;;;5101990;28;20503;-51
2021/03/20 10:29:26;;;;;;;1.92;1.83;;;10.90;40.30;;;;;;5098554;28;20310;-50
2021/03/20 10:31:54;;;;;;;1.90;1.75;;;10.60;38.80;;;;;;5098184;28;20198;-51
2021/03/20 10:34:26;;;;;;;2.20;2.00;;;9.40;40.00;;;;;;5104448;28;20215;-50
2021/03/20 10:37:10;;;;;;;2.22;2.03;;;8.30;41.50;;;;;;5101455;28;20192;-51
2021/03/20 10:39:38;;;;;;;3.33;2.38;;;9.00;43.60;;;;;;5095732;28;20749;-51
2021/03/20 10:42:15;;;;;;;2.50;2.30;;;9.30;42.70;;;;;;5107135;27;20206;-51
2021/03/20 10:44:44;;;;;;;2.83;2.35;;;8.70;43.00;;;;;;5107973;27;20187;-51
2021/03/20 10:47:48;;;;;;;5.18;2.60;;;8.40;45.30;;;;;;5103255;27;20187;-51
2021/03/20 10:50:22;;;;;;;2.30;2.10;;;7.90;44.40;;;;;;5102620;27;20195;-51
2021/03/20 10:52:50;;;;;;;2.15;1.95;;;7.90;42.50;;;;;;5123420;27;20646;-51
2021/03/20 10:55:20;;;;;;;2.53;2.33;;;7.90;43.20;;;;;;5099908;27;20198;-51
2021/03/20 10:57:47;;;;;;;2.47;2.10;;;7.20;42.60;;;;;;5108464;27;20211;-51
2021/03/20 11:00:30;;;;;;;2.85;2.58;;;8.20;43.70;;;;;;5105065;27;20251;-51
2021/03/20 11:03:14;;;;;;;4.22;2.10;;;8.10;44.90;;;;;;5100681;27;20651;-51
2021/03/20 11:05:41;;;;;;;2.78;2.15;;;8.20;44.40;;;;;;5099976;27;20668;-50
2021/03/20 11:08:24;;;;;;;2.45;2.20;;;8.80;44.70;;;;;;5123740;27;20554;-50
2021/03/20 11:11:05;;;;;;;4.75;2.40;;;9.90;42.10;;;;;;5125121;27;20188;-49
2021/03/20 11:13:36;;;;;;;2.33;2.10;;;10.60;40.00;;;;;;5121466;27;20209;-50
2021/03/20 11:16:07;;;;;;;2.67;2.10;;;11.10;39.90;;;;;;5105524;27;20200;-49
2021/03/20 11:18:38;;;;;;;2.30;2.10;;;9.70;39.60;;;;;;5104542;27;20226;-50
2021/03/20 11:21:15;;;;;;;2.30;2.10;;;10.20;38.80;;;;;;5105491;27;20181;-50
2021/03/20 11:23:41;;;;;;;2.80;2.60;;;10.30;39.10;;;;;;5101315;28;20645;-51
2021/03/20 11:26:28;;;;;;;2.80;2.60;;;9.90;41.10;;;;;;5103295;27;20240;-51
2021/03/20 11:28:54;;;;;;;4.95;2.75;;;10.20;41.90;;;;;;5112531;27;20212;-51
2021/03/20 11:31:21;;;;;;;2.80;2.60;;;9.80;42.20;;;;;;5099193;27;20209;-51
2021/03/20 11:33:48;;;;;;;3.25;2.92;;;9.90;42.30;;;;;;5105002;27;20443;-51
2021/03/20 11:36:25;;;;;;;3.35;2.72;;;9.40;42.30;;;;;;5120256;27;20830;-51
2021/03/20 11:38:51;;;;;;;4.55;3.63;;;9.00;43.10;;;;;;5106724;27;20199;-51
2021/03/20 11:41:22;;;;;;;3.00;2.70;;;8.90;43.20;;;;;;5123073;27;20183;-50
2021/03/20 11:43:51;;;;;;;2.35;2.15;;;8.30;44.10;;;;;;5097712;28;20444;-51
2021/03/20 11:46:21;;;;;;;3.20;2.90;;;8.50;44.70;;;;;;5104032;27;20652;-50
2021/03/20 11:49:03;;;;;;;3.30;3.00;;;8.10;45.60;;;;;;5115945;27;20233;-50
2021/03/20 11:51:42;;;;;;;2.50;2.30;;;8.10;44.80;;;;;;5097141;27;20217;-50
2021/03/20 11:54:26;;;;;;;2.80;2.60;;;7.80;44.30;;;;;;5121248;27;20202;-50
2021/03/20 11:56:58;;;;;;;3.35;2.30;;;8.10;43.70;;;;;;5099428;28;20210;-50
2021/03/20 11:59:41;;;;;;;2.65;2.45;;;8.20;45.10;;;;;;5097193;27;20206;-50
2021/03/20 12:02:23;;;;;;;5.22;3.10;;;8.20;45.10;;;;;;5102238;27;20175;-49
2021/03/20 12:04:49;;;;;;;5.88;3.05;;;7.80;45.30;;;;;;5108630;27;20191;-48
2021/03/20 12:07:23;;;;;;;4.88;3.05;;;8.20;46.10;;;;;;5105968;27;20175;-49
2021/03/20 12:09:52;;;;;;;3.85;2.15;;;8.70;46.00;;;;;;5103851;27;20346;-49
2021/03/20 12:12:17;;;;;;;2.72;2.53;;;8.70;45.70;;;;;;5102625;27;20279;-49
2021/03/20 12:14:45;;;;;;;2.83;2.50;;;8.30;45.70;;;;;;5122074;27;20347;-48
2021/03/20 12:17:19;;;;;;;3.30;3.00;;;8.50;45.80;;;;;;5099828;27;20579;-48
2021/03/20 12:20:07;;;;;;;4.00;3.30;;;8.30;46.30;;;;;;5125059;27;20635;-50
2021/03/20 12:22:47;;;;;;;5.03;3.97;;;8.10;47.10;;;;;;5101082;27;20187;-51
2021/03/20 12:25:24;;;;;;;3.35;3.05;;;7.60;47.70;;;;;;5103068;27;20183;-51
2021/03/20 12:27:52;;;;;;;3.30;2.65;;;7.40;49.30;;;;;;5102618;27;20198;-51
2021/03/20 12:30:22;;;;;;;3.30;3.00;;;7.50;48.60;;;;;;5099505;27;20192;-51
2021/03/20 12:32:53;;;;;;;3.00;2.80;;;7.20;48.60;;;;;;5101638;27;20220;-51
2021/03/20 12:35:18;;;;;;;3.08;2.88;;;7.30;48.30;;;;;;5104525;27;20562;-50
2021/03/20 12:38:03;;;;;;;3.27;2.97;;;6.80;49.00;;;;;;5115253;27;20306;-51
2021/03/20 12:40:29;;;;;;;3.40;3.10;;;7.10;49.50;;;;;;5104206;27;20217;-51
2021/03/20 12:42:57;;;;;;;3.00;2.72;;;7.10;51.10;;;;;;5105865;27;20179;-50
2021/03/20 12:45:26;;;;;;;4.70;3.58;;;6.80;50.20;;;;;;5110065;27;20236;-51
2021/03/20 12:47:51;;;;;;;3.60;2.72;;;7.50;50.50;;;;;;5107044;27;20238;-50
2021/03/20 12:50:17;;;;;;;3.53;3.07;;;7.70;48.70;;;;;;5105113;28;20207;-53
2021/03/20 12:52:43;;;;;;;3.90;3.40;;;7.60;48.80;;;;;;5104019;27;20477;-51
2021/03/20 12:55:10;;;;;;;4.10;3.00;;;7.80;49.40;;;;;;5095803;28;20190;-51
2021/03/20 12:57:36;;;;;;;7.30;3.42;;;7.60;48.70;;;;;;5122086;27;20637;-51
2021/03/20 13:00:09;;;;;;;2.70;2.50;;;7.90;48.10;;;;;;5099268;27;20235;-51
2021/03/20 13:02:35;;;;;;;2.97;2.78;;;7.50;48.10;;;;;;5104084;27;20197;-52
2021/03/20 13:05:02;;;;;;;2.90;2.70;;;7.70;49.20;;;;;;5100034;27;20220;-51
2021/03/20 13:07:27;;;;;;;3.70;3.20;;;7.70;48.70;;;;;;5107443;27;20886;-52
2021/03/20 13:09:53;;;;;;;3.47;3.17;;;7.80;48.80;;;;;;5105996;28;20191;-51
2021/03/20 13:12:20;;;;;;;2.97;2.77;;;7.70;49.90;;;;;;5107620;27;20181;-51
2021/03/20 13:14:46;;;;;;;3.58;3.28;;;7.40;49.30;;;;;;5120592;27;20986;-52
2021/03/20 13:17:15;;;;;;;5.40;3.50;;;7.60;51.40;;;;;;5109729;27;20632;-51
2021/03/20 13:19:41;;;;;;;3.90;3.33;;;7.90;52.10;;;;;;5097918;28;20440;-52
2021/03/20 13:22:08;;;;;;;3.60;3.30;;;7.60;50.70;;;;;;5099954;27;20205;-51
2021/03/20 13:24:34;;;;;;;7.40;3.63;;;7.80;49.30;;;;;;5104169;27;20187;-52
2021/03/20 13:27:01;;;;;;;5.90;3.38;;;7.50;50.20;;;;;;5097889;27;20193;-51
2021/03/20 13:29:27;;;;;;;2.85;2.65;;;7.40;50.90;;;;;;5104899;28;20201;-51
2021/03/20 13:31:53;;;;;;;4.97;3.47;;;7.50;51.80;;;;;;5105290;28;20178;-52
2021/03/20 13:34:19;;;;;;;4.20;3.17;;;7.60;49.80;;;;;;5101694;28;20175;-51